Terminal Aerodrome Forecast
Issued by NWS

Home | Current Version | Previous Version | Text Only | Print | Product List | Glossary On
Versions: 1 2 3 4 5 6 7 8 9 10 11 12 13 14 15
000
FTUS41 KCLE 292321
TAFFDY
TAF
KFDY 292321Z 3000/3024 18012G20KT P6SM VCTS BKN050CB
     FM300200 20010KT P6SM BKN150
     FM301400 22010KT P6SM SCT035
     FM301600 24012G20KT P6SM BKN045
     FM302000 22012G20KT 3SM -TSRA OVC035CB
     FM302300 20012KT P6SM -SHRA OVC050=

USA.gov is the U.S. government's official web portal to all federal, state and local government web resources and services.